sensor_id;sensor_type;location;lat;lon;timestamp;pressure;altitude;pressure_sealevel;temperature;humidity
71109;BME280;59614;51.012;-1.648;2023-05-07T00:01:49;100524.81;;;13.12;100.00
71109;BME280;59614;51.012;-1.648;2023-05-07T00:04:14;100525.59;;;13.16;100.00
71109;BME280;59614;51.012;-1.648;2023-05-07T00:06:40;100525.78;;;13.08;100.00
71109;BME280;59614;51.012;-1.648;2023-05-07T00:09:06;100530.34;;;13.03;100.00
71109;BME280;59614;51.012;-1.648;2023-05-07T00:11:32;100532.81;;;13.09;100.00
71109;BME280;59614;51.012;-1.648;2023-05-07T00:13:58;100526.56;;;13.13;100.00
71109;BME280;59614;51.012;-1.648;2023-05-07T00:16:23;100520.59;;;13.04;100.00
71109;BME280;59614;51.012;-1.648;2023-05-07T00:18:49;100531.44;;;12.57;100.00
71109;BME280;59614;51.012;-1.648;2023-05-07T00:21:14;100522.22;;;12.73;100.00
71109;BME280;59614;51.012;-1.648;2023-05-07T00:23:40;100530.13;;;12.37;100.00
71109;BME280;59614;51.012;-1.648;2023-05-07T00:26:05;100525.63;;;12.78;100.00
71109;BME280;59614;51.012;-1.648;2023-05-07T00:28:31;100523.16;;;12.33;100.00
71109;BME280;59614;51.012;-1.648;2023-05-07T00:30:56;100532.06;;;12.68;100.00
71109;BME280;59614;51.012;-1.648;2023-05-07T00:33:22;100531.06;;;12.72;100.00
71109;BME280;59614;51.012;-1.648;2023-05-07T00:35:47;100530.81;;;12.83;100.00
71109;BME280;59614;51.012;-1.648;2023-05-07T00:38:13;100533.53;;;12.80;100.00
71109;BME280;59614;51.012;-1.648;2023-05-07T00:40:39;100534.88;;;12.98;100.00
71109;BME280;59614;51.012;-1.648;2023-05-07T00:43:04;100535.34;;;12.79;100.00
71109;BME280;59614;51.012;-1.648;2023-05-07T00:45:30;100525.28;;;12.94;100.00
71109;BME280;59614;51.012;-1.648;2023-05-07T00:47:57;100522.16;;;12.76;100.00
71109;BME280;59614;51.012;-1.648;2023-05-07T00:50:24;100524.66;;;12.82;100.00
71109;BME280;59614;51.012;-1.648;2023-05-07T00:52:50;100521.69;;;12.96;100.00
71109;BME280;59614;51.012;-1.648;2023-05-07T00:55:16;100517.94;;;13.04;100.00
71109;BME280;59614;51.012;-1.648;2023-05-07T00:57:42;100507.78;;;12.87;100.00
71109;BME280;59614;51.012;-1.648;2023-05-07T01:00:08;100511.97;;;12.20;100.00
71109;BME280;59614;51.012;-1.648;2023-05-07T01:02:35;100518.97;;;12.23;100.00
71109;BME280;59614;51.012;-1.648;2023-05-07T01:05:01;100517.16;;;12.64;100.00
71109;BME280;59614;51.012;-1.648;2023-05-07T01:07:29;100516.81;;;12.78;100.00
71109;BME280;59614;51.012;-1.648;2023-05-07T01:09:55;100528.06;;;12.88;100.00
71109;BME280;59614;51.012;-1.648;2023-05-07T01:12:21;100521.25;;;12.77;100.00
71109;BME280;59614;51.012;-1.648;2023-05-07T01:14:47;100528.28;;;12.78;100.00
71109;BME280;59614;51.012;-1.648;2023-05-07T01:17:14;100519.28;;;12.86;100.00
71109;BME280;59614;51.012;-1.648;2023-05-07T01:19:40;100528.28;;;12.78;100.00
71109;BME280;59614;51.012;-1.648;2023-05-07T01:22:09;100525.94;;;13.02;100.00
71109;BME280;59614;51.012;-1.648;2023-05-07T01:24:36;100529.34;;;12.71;100.00
71109;BME280;59614;51.012;-1.648;2023-05-07T01:27:02;100526.31;;;12.87;100.00
71109;BME280;59614;51.012;-1.648;2023-05-07T01:29:28;100521.41;;;12.71;100.00
71109;BME280;59614;51.012;-1.648;2023-05-07T01:31:59;100526.09;;;12.96;100.00
71109;BME280;59614;51.012;-1.648;2023-05-07T01:34:25;100522.16;;;13.12;100.00
71109;BME280;59614;51.012;-1.648;2023-05-07T01:36:53;100509.56;;;13.21;100.00
71109;BME280;59614;51.012;-1.648;2023-05-07T01:39:22;100524.03;;;13.07;100.00
71109;BME280;59614;51.012;-1.648;2023-05-07T01:41:49;100524.34;;;12.95;100.00
71109;BME280;59614;51.012;-1.648;2023-05-07T01:44:16;100521.03;;;12.87;100.00
71109;BME280;59614;51.012;-1.648;2023-05-07T01:46:42;100519.97;;;12.94;100.00
71109;BME280;59614;51.012;-1.648;2023-05-07T01:49:07;100524.13;;;13.04;100.00
71109;BME280;59614;51.012;-1.648;2023-05-07T01:51:33;100522.53;;;12.97;100.00
71109;BME280;59614;51.012;-1.648;2023-05-07T01:53:59;100527.47;;;13.12;100.00
71109;BME280;59614;51.012;-1.648;2023-05-07T01:56:25;100527.81;;;12.97;100.00
71109;BME280;59614;51.012;-1.648;2023-05-07T01:58:51;100523.84;;;13.15;100.00
71109;BME280;59614;51.012;-1.648;2023-05-07T02:01:17;100524.81;;;13.12;100.00
71109;BME280;59614;51.012;-1.648;2023-05-07T02:03:43;100520.16;;;13.21;100.00
71109;BME280;59614;51.012;-1.648;2023-05-07T02:06:09;100521.78;;;13.26;100.00
71109;BME280;59614;51.012;-1.648;2023-05-07T02:08:34;100521.78;;;13.28;100.00
71109;BME280;59614;51.012;-1.648;2023-05-07T02:11:00;100521.88;;;13.23;100.00
71109;BME280;59614;51.012;-1.648;2023-05-07T02:13:32;100531.81;;;13.15;100.00
71109;BME280;59614;51.012;-1.648;2023-05-07T02:15:58;100532.75;;;13.12;100.00
71109;BME280;59614;51.012;-1.648;2023-05-07T02:18:23;100521.09;;;13.20;100.00
71109;BME280;59614;51.012;-1.648;2023-05-07T02:20:49;100527.22;;;13.22;100.00
71109;BME280;59614;51.012;-1.648;2023-05-07T02:23:14;100531.59;;;13.23;100.00
71109;BME280;59614;51.012;-1.648;2023-05-07T02:25:40;100528.00;;;13.25;100.00
71109;BME280;59614;51.012;-1.648;2023-05-07T02:28:05;100543.78;;;13.30;100.00
71109;BME280;59614;51.012;-1.648;2023-05-07T02:30:31;100546.53;;;13.27;100.00
71109;BME280;59614;51.012;-1.648;2023-05-07T02:32:57;100547.81;;;13.10;100.00
71109;BME280;59614;51.012;-1.648;2023-05-07T02:35:24;100552.88;;;13.20;100.00
71109;BME280;59614;51.012;-1.648;2023-05-07T02:37:49;100555.28;;;13.29;100.00
71109;BME280;59614;51.012;-1.648;2023-05-07T02:40:15;100557.69;;;13.05;100.00
71109;BME280;59614;51.012;-1.648;2023-05-07T02:42:40;100552.81;;;13.23;100.00
71109;BME280;59614;51.012;-1.648;2023-05-07T02:45:06;100564.06;;;13.33;100.00
71109;BME280;59614;51.012;-1.648;2023-05-07T02:47:32;100564.31;;;13.22;100.00
71109;BME280;59614;51.012;-1.648;2023-05-07T02:49:57;100573.66;;;13.02;100.00
71109;BME280;59614;51.012;-1.648;2023-05-07T02:52:23;100574.38;;;13.09;100.00
71109;BME280;59614;51.012;-1.648;2023-05-07T02:54:48;100579.81;;;13.03;100.00
71109;BME280;59614;51.012;-1.648;2023-05-07T02:57:14;100571.16;;;12.94;100.00
71109;BME280;59614;51.012;-1.648;2023-05-07T02:59:39;100581.31;;;12.77;100.00
71109;BME280;59614;51.012;-1.648;2023-05-07T03:02:05;100579.28;;;12.87;100.00
71109;BME280;59614;51.012;-1.648;2023-05-07T03:04:30;100575.56;;;12.95;100.00
71109;BME280;59614;51.012;-1.648;2023-05-07T03:06:56;100584.88;;;13.12;100.00
71109;BME280;59614;51.012;-1.648;2023-05-07T03:09:21;100581.72;;;12.96;100.00
71109;BME280;59614;51.012;-1.648;2023-05-07T03:11:47;100587.13;;;12.91;100.00
71109;BME280;59614;51.012;-1.648;2023-05-07T03:14:12;100591.53;;;12.92;100.00
71109;BME280;59614;51.012;-1.648;2023-05-07T03:16:38;100581.09;;;12.85;100.00
71109;BME280;59614;51.012;-1.648;2023-05-07T03:19:03;100583.69;;;12.88;100.00
71109;BME280;59614;51.012;-1.648;2023-05-07T03:21:29;100585.66;;;12.78;100.00
71109;BME280;59614;51.012;-1.648;2023-05-07T03:23:55;100586.09;;;12.59;100.00
71109;BME280;59614;51.012;-1.648;2023-05-07T03:26:21;100593.88;;;12.67;100.00
71109;BME280;59614;51.012;-1.648;2023-05-07T03:28:46;100591.91;;;12.75;100.00
71109;BME280;59614;51.012;-1.648;2023-05-07T03:31:12;100595.84;;;12.96;100.00
71109;BME280;59614;51.012;-1.648;2023-05-07T03:33:50;100595.13;;;12.90;100.00
71109;BME280;59614;51.012;-1.648;2023-05-07T03:36:16;100600.34;;;12.93;100.00
71109;BME280;59614;51.012;-1.648;2023-05-07T03:38:41;100601.31;;;12.89;100.00
71109;BME280;59614;51.012;-1.648;2023-05-07T03:41:06;100605.88;;;12.82;100.00
71109;BME280;59614;51.012;-1.648;2023-05-07T03:43:32;100603.31;;;12.79;100.00
71109;BME280;59614;51.012;-1.648;2023-05-07T03:45:57;100605.53;;;12.58;100.00
71109;BME280;59614;51.012;-1.648;2023-05-07T03:48:22;100603.03;;;12.52;100.00
71109;BME280;59614;51.012;-1.648;2023-05-07T03:50:48;100609.72;;;12.70;100.00
71109;BME280;59614;51.012;-1.648;2023-05-07T03:53:13;100611.25;;;12.79;100.00
71109;BME280;59614;51.012;-1.648;2023-05-07T03:55:39;100617.28;;;12.87;100.00
71109;BME280;59614;51.012;-1.648;2023-05-07T03:58:04;100615.00;;;12.70;100.00
71109;BME280;59614;51.012;-1.648;2023-05-07T04:00:30;100619.78;;;12.52;100.00
71109;BME280;59614;51.012;-1.648;2023-05-07T04:02:58;100622.31;;;12.57;100.00
71109;BME280;59614;51.012;-1.648;2023-05-07T04:05:24;100620.50;;;12.61;100.00
71109;BME280;59614;51.012;-1.648;2023-05-07T04:07:49;100619.03;;;12.46;100.00
71109;BME280;59614;51.012;-1.648;2023-05-07T04:10:15;100624.88;;;12.62;100.00
71109;BME280;59614;51.012;-1.648;2023-05-07T04:12:40;100621.63;;;12.49;100.00
71109;BME280;59614;51.012;-1.648;2023-05-07T04:15:06;100619.22;;;12.38;100.00
71109;BME280;59614;51.012;-1.648;2023-05-07T04:17:32;100621.06;;;12.33;100.00
71109;BME280;59614;51.012;-1.648;2023-05-07T04:19:57;100624.50;;;12.38;100.00
71109;BME280;59614;51.012;-1.648;2023-05-07T04:22:23;100632.97;;;12.56;100.00
71109;BME280;59614;51.012;-1.648;2023-05-07T04:24:48;100626.81;;;12.55;100.00
71109;BME280;59614;51.012;-1.648;2023-05-07T04:27:14;100631.41;;;12.45;100.00
71109;BME280;59614;51.012;-1.648;2023-05-07T04:29:40;100634.75;;;12.54;100.00
71109;BME280;59614;51.012;-1.648;2023-05-07T04:32:08;100626.91;;;12.49;100.00
71109;BME280;59614;51.012;-1.648;2023-05-07T04:34:34;100629.44;;;12.55;100.00
71109;BME280;59614;51.012;-1.648;2023-05-07T04:36:59;100638.09;;;12.62;100.00
71109;BME280;59614;51.012;-1.648;2023-05-07T04:39:25;100643.53;;;12.56;100.00
71109;BME280;59614;51.012;-1.648;2023-05-07T04:41:51;100639.19;;;12.53;100.00
71109;BME280;59614;51.012;-1.648;2023-05-07T04:44:16;100636.81;;;12.39;100.00
71109;BME280;59614;51.012;-1.648;2023-05-07T04:46:41;100640.06;;;12.54;100.00
71109;BME280;59614;51.012;-1.648;2023-05-07T04:49:07;100639.94;;;12.60;100.00
71109;BME280;59614;51.012;-1.648;2023-05-07T04:51:32;100627.59;;;12.59;100.00
71109;BME280;59614;51.012;-1.648;2023-05-07T04:53:58;100640.78;;;12.60;100.00
71109;BME280;59614;51.012;-1.648;2023-05-07T04:56:23;100648.91;;;12.52;100.00
71109;BME280;59614;51.012;-1.648;2023-05-07T04:58:49;100642.91;;;12.44;100.00
71109;BME280;59614;51.012;-1.648;2023-05-07T05:01:14;100643.59;;;12.52;100.00
71109;BME280;59614;51.012;-1.648;2023-05-07T05:03:40;100646.00;;;12.65;100.00
71109;BME280;59614;51.012;-1.648;2023-05-07T05:06:06;100648.59;;;12.68;100.00
71109;BME280;59614;51.012;-1.648;2023-05-07T05:08:31;100643.19;;;12.29;100.00
71109;BME280;59614;51.012;-1.648;2023-05-07T05:10:56;100646.69;;;12.32;100.00
71109;BME280;59614;51.012;-1.648;2023-05-07T05:13:22;100655.34;;;12.41;100.00
71109;BME280;59614;51.012;-1.648;2023-05-07T05:15:47;100662.94;;;12.58;100.00
71109;BME280;59614;51.012;-1.648;2023-05-07T05:18:13;100675.91;;;12.69;100.00
71109;BME280;59614;51.012;-1.648;2023-05-07T05:20:38;100674.47;;;12.55;100.00
71109;BME280;59614;51.012;-1.648;2023-05-07T05:23:04;100675.28;;;12.57;100.00
71109;BME280;59614;51.012;-1.648;2023-05-07T05:25:29;100679.66;;;12.58;100.00
71109;BME280;59614;51.012;-1.648;2023-05-07T05:27:55;100669.81;;;12.65;100.00
71109;BME280;59614;51.012;-1.648;2023-05-07T05:30:20;100675.81;;;12.75;100.00
71109;BME280;59614;51.012;-1.648;2023-05-07T05:32:46;100674.59;;;12.90;100.00
71109;BME280;59614;51.012;-1.648;2023-05-07T05:35:11;100681.81;;;12.83;100.00
71109;BME280;59614;51.012;-1.648;2023-05-07T05:37:36;100693.91;;;12.95;100.00
71109;BME280;59614;51.012;-1.648;2023-05-07T05:40:02;100689.91;;;12.75;100.00
71109;BME280;59614;51.012;-1.648;2023-05-07T05:42:28;100698.44;;;12.90;100.00
71109;BME280;59614;51.012;-1.648;2023-05-07T05:44:54;100695.22;;;12.75;100.00
71109;BME280;59614;51.012;-1.648;2023-05-07T05:47:19;100692.75;;;12.66;100.00
71109;BME280;59614;51.012;-1.648;2023-05-07T05:49:44;100700.00;;;12.58;100.00
71109;BME280;59614;51.012;-1.648;2023-05-07T05:52:12;100691.59;;;12.78;100.00
71109;BME280;59614;51.012;-1.648;2023-05-07T05:54:37;100701.94;;;12.90;100.00
71109;BME280;59614;51.012;-1.648;2023-05-07T05:57:04;100707.34;;;12.86;100.00
71109;BME280;59614;51.012;-1.648;2023-05-07T05:59:29;100703.69;;;12.93;100.00
71109;BME280;59614;51.012;-1.648;2023-05-07T06:01:55;100712.44;;;12.96;100.00
71109;BME280;59614;51.012;-1.648;2023-05-07T06:04:21;100710.25;;;12.73;100.00
71109;BME280;59614;51.012;-1.648;2023-05-07T06:06:46;100709.59;;;12.63;100.00
71109;BME280;59614;51.012;-1.648;2023-05-07T06:09:12;100709.53;;;12.66;100.00
71109;BME280;59614;51.012;-1.648;2023-05-07T06:11:37;100699.78;;;12.67;100.00
71109;BME280;59614;51.012;-1.648;2023-05-07T06:14:03;100706.38;;;12.90;100.00
71109;BME280;59614;51.012;-1.648;2023-05-07T06:16:28;100701.84;;;12.96;100.00
71109;BME280;59614;51.012;-1.648;2023-05-07T06:18:53;100701.59;;;12.65;100.00
71109;BME280;59614;51.012;-1.648;2023-05-07T06:21:19;100707.69;;;12.69;100.00
71109;BME280;59614;51.012;-1.648;2023-05-07T06:23:44;100701.59;;;12.65;100.00
71109;BME280;59614;51.012;-1.648;2023-05-07T06:26:10;100702.16;;;12.81;100.00
71109;BME280;59614;51.012;-1.648;2023-05-07T06:28:35;100698.72;;;12.32;100.00
71109;BME280;59614;51.012;-1.648;2023-05-07T06:31:21;100703.41;;;12.63;100.00
71109;BME280;59614;51.012;-1.648;2023-05-07T06:33:49;100705.16;;;12.64;100.00
71109;BME280;59614;51.012;-1.648;2023-05-07T06:36:14;100710.84;;;12.88;100.00
71109;BME280;59614;51.012;-1.648;2023-05-07T06:38:40;100727.41;;;12.97;100.00
71109;BME280;59614;51.012;-1.648;2023-05-07T06:41:06;100732.88;;;12.90;100.00
71109;BME280;59614;51.012;-1.648;2023-05-07T06:43:32;100740.59;;;13.01;100.00
71109;BME280;59614;51.012;-1.648;2023-05-07T06:45:57;100746.56;;;12.68;100.00
71109;BME280;59614;51.012;-1.648;2023-05-07T06:48:23;100746.09;;;12.91;100.00
71109;BME280;59614;51.012;-1.648;2023-05-07T06:50:48;100755.00;;;12.87;100.00
71109;BME280;59614;51.012;-1.648;2023-05-07T06:53:14;100762.88;;;12.92;100.00
71109;BME280;59614;51.012;-1.648;2023-05-07T06:55:39;100761.81;;;12.99;100.00
71109;BME280;59614;51.012;-1.648;2023-05-07T06:58:04;100766.28;;;12.97;100.00
71109;BME280;59614;51.012;-1.648;2023-05-07T07:00:31;100763.88;;;12.85;100.00
71109;BME280;59614;51.012;-1.648;2023-05-07T07:02:56;100754.38;;;12.74;100.00
71109;BME280;59614;51.012;-1.648;2023-05-07T07:05:22;100754.69;;;12.59;100.00
71109;BME280;59614;51.012;-1.648;2023-05-07T07:07:47;100756.09;;;12.77;100.00
71109;BME280;59614;51.012;-1.648;2023-05-07T07:10:21;100766.38;;;12.92;100.00
71109;BME280;59614;51.012;-1.648;2023-05-07T07:12:47;100760.91;;;13.00;100.00
71109;BME280;59614;51.012;-1.648;2023-05-07T07:15:13;100762.06;;;12.88;100.00
71109;BME280;59614;51.012;-1.648;2023-05-07T07:17:39;100759.81;;;12.68;100.00
71109;BME280;59614;51.012;-1.648;2023-05-07T07:20:05;100759.47;;;12.85;100.00
71109;BME280;59614;51.012;-1.648;2023-05-07T07:22:30;100765.88;;;12.73;100.00
71109;BME280;59614;51.012;-1.648;2023-05-07T07:24:56;100767.13;;;12.55;100.00
71109;BME280;59614;51.012;-1.648;2023-05-07T07:27:21;100766.59;;;12.81;100.00
71109;BME280;59614;51.012;-1.648;2023-05-07T07:29:46;100772.06;;;12.72;100.00
71109;BME280;59614;51.012;-1.648;2023-05-07T07:32:12;100773.16;;;12.62;100.00
71109;BME280;59614;51.012;-1.648;2023-05-07T07:34:37;100770.34;;;12.70;100.00
71109;BME280;59614;51.012;-1.648;2023-05-07T07:37:03;100781.09;;;12.62;100.00
71109;BME280;59614;51.012;-1.648;2023-05-07T07:39:31;100780.50;;;12.46;100.00
71109;BME280;59614;51.012;-1.648;2023-05-07T07:41:57;100779.88;;;12.80;100.00
71109;BME280;59614;51.012;-1.648;2023-05-07T07:44:22;100780.50;;;12.93;100.00
71109;BME280;59614;51.012;-1.648;2023-05-07T07:46:48;100790.78;;;13.08;100.00
71109;BME280;59614;51.012;-1.648;2023-05-07T07:49:14;100791.88;;;13.39;100.00
71109;BME280;59614;51.012;-1.648;2023-05-07T07:51:39;100799.50;;;13.56;100.00
71109;BME280;59614;51.012;-1.648;2023-05-07T07:54:05;100805.19;;;13.36;100.00
71109;BME280;59614;51.012;-1.648;2023-05-07T07:56:32;100805.13;;;13.42;100.00
71109;BME280;59614;51.012;-1.648;2023-05-07T07:58:58;100806.16;;;13.33;100.00
71109;BME280;59614;51.012;-1.648;2023-05-07T08:01:24;100802.53;;;12.95;100.00
71109;BME280;59614;51.012;-1.648;2023-05-07T08:03:49;100806.94;;;13.37;100.00
71109;BME280;59614;51.012;-1.648;2023-05-07T08:06:15;100808.13;;;13.64;100.00
71109;BME280;59614;51.012;-1.648;2023-05-07T08:08:40;100804.84;;;13.54;100.00
71109;BME280;59614;51.012;-1.648;2023-05-07T08:11:06;100813.66;;;13.55;100.00
71109;BME280;59614;51.012;-1.648;2023-05-07T08:13:31;100815.81;;;13.77;100.00
71109;BME280;59614;51.012;-1.648;2023-05-07T08:15:57;100820.53;;;13.64;100.00
71109;BME280;59614;51.012;-1.648;2023-05-07T08:18:22;100820.78;;;13.92;100.00
71109;BME280;59614;51.012;-1.648;2023-05-07T08:20:50;100816.94;;;14.04;100.00
71109;BME280;59614;51.012;-1.648;2023-05-07T08:23:15;100821.38;;;14.03;100.00
71109;BME280;59614;51.012;-1.648;2023-05-07T08:25:41;100827.56;;;14.04;100.00
71109;BME280;59614;51.012;-1.648;2023-05-07T08:28:08;100834.59;;;14.07;100.00
71109;BME280;59614;51.012;-1.648;2023-05-07T08:30:33;100832.84;;;14.05;100.00
71109;BME280;59614;51.012;-1.648;2023-05-07T08:33:00;100828.28;;;14.11;99.92
71109;BME280;59614;51.012;-1.648;2023-05-07T08:35:25;100830.53;;;14.61;100.00
71109;BME280;59614;51.012;-1.648;2023-05-07T08:37:52;100825.28;;;14.92;100.00
71109;BME280;59614;51.012;-1.648;2023-05-07T08:40:17;100828.09;;;14.88;97.21
71109;BME280;59614;51.012;-1.648;2023-05-07T08:42:44;100825.56;;;14.83;94.74
71109;BME280;59614;51.012;-1.648;2023-05-07T08:45:10;100828.69;;;14.97;95.92
71109;BME280;59614;51.012;-1.648;2023-05-07T08:47:44;100843.81;;;14.62;94.11
71109;BME280;59614;51.012;-1.648;2023-05-07T08:50:11;100840.63;;;14.82;97.72
71109;BME280;59614;51.012;-1.648;2023-05-07T08:52:36;100846.06;;;14.78;93.69
71109;BME280;59614;51.012;-1.648;2023-05-07T08:55:02;100843.66;;;14.69;94.19
71109;BME280;59614;51.012;-1.648;2023-05-07T08:57:28;100841.88;;;15.01;96.90
71109;BME280;59614;51.012;-1.648;2023-05-07T08:59:54;100836.16;;;15.46;97.49
71109;BME280;59614;51.012;-1.648;2023-05-07T09:02:19;100833.56;;;15.13;93.42
71109;BME280;59614;51.012;-1.648;2023-05-07T09:04:45;100843.22;;;15.17;95.77
71109;BME280;59614;51.012;-1.648;2023-05-07T09:07:10;100835.66;;;15.33;95.12
71109;BME280;59614;51.012;-1.648;2023-05-07T09:09:37;100834.25;;;15.20;93.40
71109;BME280;59614;51.012;-1.648;2023-05-07T09:12:02;100846.00;;;15.42;95.34
71109;BME280;59614;51.012;-1.648;2023-05-07T09:14:29;100836.22;;;15.44;94.50
71109;BME280;59614;51.012;-1.648;2023-05-07T09:16:56;100828.59;;;15.32;94.22
71109;BME280;59614;51.012;-1.648;2023-05-07T09:19:25;100833.47;;;15.76;98.38
71109;BME280;59614;51.012;-1.648;2023-05-07T09:22:09;100839.44;;;15.84;96.42
71109;BME280;59614;51.012;-1.648;2023-05-07T09:24:35;100840.94;;;15.65;92.75
71109;BME280;59614;51.012;-1.648;2023-05-07T09:27:03;100842.16;;;15.53;93.88
71109;BME280;59614;51.012;-1.648;2023-05-07T09:29:29;100857.00;;;15.60;97.07
71109;BME280;59614;51.012;-1.648;2023-05-07T09:31:55;100854.38;;;15.88;98.39
71109;BME280;59614;51.012;-1.648;2023-05-07T09:34:21;100858.88;;;15.56;95.33
71109;BME280;59614;51.012;-1.648;2023-05-07T09:36:47;100869.91;;;15.44;96.79
71109;BME280;59614;51.012;-1.648;2023-05-07T09:39:13;100880.53;;;15.44;99.11
71109;BME280;59614;51.012;-1.648;2023-05-07T09:41:46;100885.84;;;15.44;96.96
71109;BME280;59614;51.012;-1.648;2023-05-07T09:44:14;100889.88;;;15.27;96.71
71109;BME280;59614;51.012;-1.648;2023-05-07T09:46:42;100891.78;;;15.22;93.68
71109;BME280;59614;51.012;-1.648;2023-05-07T09:49:16;100895.59;;;15.13;93.38
71109;BME280;59614;51.012;-1.648;2023-05-07T09:51:49;100898.50;;;15.36;95.09
71109;BME280;59614;51.012;-1.648;2023-05-07T09:54:16;100891.09;;;15.47;94.83
71109;BME280;59614;51.012;-1.648;2023-05-07T09:56:43;100899.25;;;15.71;100.00
71109;BME280;59614;51.012;-1.648;2023-05-07T09:59:14;100887.16;;;15.60;96.52
71109;BME280;59614;51.012;-1.648;2023-05-07T10:01:42;100887.66;;;15.73;96.04
71109;BME280;59614;51.012;-1.648;2023-05-07T10:04:08;100894.38;;;16.15;97.02
71109;BME280;59614;51.012;-1.648;2023-05-07T10:06:35;100895.22;;;16.16;95.87
71109;BME280;59614;51.012;-1.648;2023-05-07T10:09:01;100894.66;;;16.06;96.35
71109;BME280;59614;51.012;-1.648;2023-05-07T10:11:27;100901.34;;;16.19;96.38
71109;BME280;59614;51.012;-1.648;2023-05-07T10:13:53;100912.31;;;16.37;95.83
71109;BME280;59614;51.012;-1.648;2023-05-07T10:16:19;100918.09;;;16.77;98.40
71109;BME280;59614;51.012;-1.648;2023-05-07T10:18:46;100923.09;;;16.61;96.89
71109;BME280;59614;51.012;-1.648;2023-05-07T10:21:17;100915.69;;;16.15;95.84
71109;BME280;59614;51.012;-1.648;2023-05-07T10:23:45;100914.78;;;16.43;95.39
71109;BME280;59614;51.012;-1.648;2023-05-07T10:26:14;100911.31;;;16.41;95.29
71109;BME280;59614;51.012;-1.648;2023-05-07T10:28:43;100910.38;;;16.42;95.08
71109;BME280;59614;51.012;-1.648;2023-05-07T10:33:48;100897.34;;;17.12;93.92
71109;BME280;59614;51.012;-1.648;2023-05-07T10:36:17;100899.88;;;16.90;86.24
71109;BME280;59614;51.012;-1.648;2023-05-07T10:38:43;100894.88;;;17.31;85.39
71109;BME280;59614;51.012;-1.648;2023-05-07T10:41:09;100898.03;;;17.66;85.16
71109;BME280;59614;51.012;-1.648;2023-05-07T10:43:43;100891.75;;;17.67;80.01
71109;BME280;59614;51.012;-1.648;2023-05-07T10:46:10;100909.09;;;17.79;86.75
71109;BME280;59614;51.012;-1.648;2023-05-07T10:51:34;100911.09;;;17.96;87.75
71109;BME280;59614;51.012;-1.648;2023-05-07T10:56:35;100920.69;;;18.02;90.61
71109;BME280;59614;51.012;-1.648;2023-05-07T11:04:24;100901.75;;;20.48;72.30
71109;BME280;59614;51.012;-1.648;2023-05-07T11:12:17;100911.63;;;20.29;86.77
71109;BME280;59614;51.012;-1.648;2023-05-07T11:14:43;100916.53;;;19.23;77.50
71109;BME280;59614;51.012;-1.648;2023-05-07T11:17:09;100919.06;;;18.85;81.46
71109;BME280;59614;51.012;-1.648;2023-05-07T11:19:53;100931.22;;;18.94;87.26
71109;BME280;59614;51.012;-1.648;2023-05-07T11:25:04;100917.78;;;19.94;88.15
71109;BME280;59614;51.012;-1.648;2023-05-07T11:27:31;100915.22;;;20.10;88.70
71109;BME280;59614;51.012;-1.648;2023-05-07T11:29:57;100917.84;;;20.66;80.09
71109;BME280;59614;51.012;-1.648;2023-05-07T11:32:32;100925.50;;;20.91;83.81
71109;BME280;59614;51.012;-1.648;2023-05-07T11:34:59;100923.59;;;19.83;83.08
71109;BME280;59614;51.012;-1.648;2023-05-07T11:37:26;100937.63;;;19.50;84.19
71109;BME280;59614;51.012;-1.648;2023-05-07T11:40:07;100928.44;;;18.95;84.12
71109;BME280;59614;51.012;-1.648;2023-05-07T11:42:37;100934.19;;;19.27;88.53
71109;BME280;59614;51.012;-1.648;2023-05-07T11:45:03;100928.69;;;19.31;83.99
71109;BME280;59614;51.012;-1.648;2023-05-07T11:47:32;100926.81;;;20.47;79.08
71109;BME280;59614;51.012;-1.648;2023-05-07T11:50:04;100927.63;;;19.94;80.77
71109;BME280;59614;51.012;-1.648;2023-05-07T11:52:30;100939.22;;;19.54;84.63
71109;BME280;59614;51.012;-1.648;2023-05-07T11:54:57;100943.56;;;19.17;85.31
71109;BME280;59614;51.012;-1.648;2023-05-07T11:57:23;100935.09;;;19.07;85.85
71109;BME280;59614;51.012;-1.648;2023-05-07T11:59:56;100936.19;;;19.43;84.63
71109;BME280;59614;51.012;-1.648;2023-05-07T12:02:22;100934.38;;;19.63;83.68
71109;BME280;59614;51.012;-1.648;2023-05-07T12:04:50;100935.78;;;19.32;82.52
71109;BME280;59614;51.012;-1.648;2023-05-07T12:07:16;100928.72;;;19.89;81.85
71109;BME280;59614;51.012;-1.648;2023-05-07T12:09:42;100929.63;;;20.81;78.95
71109;BME280;59614;51.012;-1.648;2023-05-07T12:12:08;100934.44;;;20.01;79.50
71109;BME280;59614;51.012;-1.648;2023-05-07T12:14:42;100947.84;;;19.21;81.08
71109;BME280;59614;51.012;-1.648;2023-05-07T12:17:08;100951.03;;;18.88;82.41
71109;BME280;59614;51.012;-1.648;2023-05-07T12:19:35;100954.34;;;20.14;81.85
71109;BME280;59614;51.012;-1.648;2023-05-07T12:22:05;100947.25;;;19.54;78.99
71109;BME280;59614;51.012;-1.648;2023-05-07T12:24:50;100948.69;;;19.22;81.99
71109;BME280;59614;51.012;-1.648;2023-05-07T12:27:21;100955.59;;;19.27;82.15
71109;BME280;59614;51.012;-1.648;2023-05-07T12:29:47;100946.31;;;19.95;75.17
71109;BME280;59614;51.012;-1.648;2023-05-07T12:32:17;100934.47;;;21.25;81.13
71109;BME280;59614;51.012;-1.648;2023-05-07T12:34:43;100936.56;;;22.03;74.43
71109;BME280;59614;51.012;-1.648;2023-05-07T12:37:09;100930.94;;;22.71;75.94
71109;BME280;59614;51.012;-1.648;2023-05-07T12:39:35;100932.47;;;22.75;69.42
71109;BME280;59614;51.012;-1.648;2023-05-07T12:42:01;100930.09;;;22.54;71.33
71109;BME280;59614;51.012;-1.648;2023-05-07T12:44:31;100917.00;;;21.68;60.53
71109;BME280;59614;51.012;-1.648;2023-05-07T12:46:57;100927.91;;;22.91;65.99
71109;BME280;59614;51.012;-1.648;2023-05-07T12:49:25;100929.91;;;22.57;68.44
71109;BME280;59614;51.012;-1.648;2023-05-07T12:51:51;100927.81;;;22.93;62.99